createdAt,value
2018-06-27T00:01:17.212Z,4.00
2018-06-27T00:02:16.351Z,4.00
2018-06-27T00:04:21.281Z,4.00
2018-06-27T00:05:16.250Z,8.00
2018-06-27T00:06:24.448Z,4.00
2018-06-27T00:08:11.295Z,4.00
2018-06-27T00:11:04.736Z,4.00
2018-06-27T00:12:02.907Z,4.00
2018-06-27T00:14:27.852Z,8.00
2018-06-27T00:15:20.092Z,8.00
2018-06-27T00:19:29.455Z,8.00
2018-06-27T00:20:18.781Z,12.00
2018-06-27T00:24:11.568Z,12.00
2018-06-27T00:25:03.901Z,16.00
2018-06-27T00:26:58.736Z,16.00
2018-06-27T00:27:57.737Z,16.00
2018-06-27T00:30:28.242Z,20.00
2018-06-27T00:31:04.064Z,20.00
2018-06-27T00:32:05.279Z,24.00
2018-06-27T00:33:07.239Z,24.00
2018-06-27T00:34:05.243Z,24.00
2018-06-27T00:35:03.244Z,24.00
2018-06-27T00:37:48.545Z,32.00
2018-06-27T00:38:35.327Z,32.00
2018-06-27T00:40:27.580Z,36.00
2018-06-27T00:41:27.656Z,40.00
2018-06-27T00:42:29.704Z,40.00
2018-06-27T00:43:29.583Z,44.00
2018-06-27T00:44:27.536Z,48.00
2018-06-27T00:45:28.044Z,48.00
2018-06-27T00:46:27.434Z,52.00
2018-06-27T00:47:27.554Z,56.00
2018-06-27T00:48:28.027Z,56.00
2018-06-27T00:49:27.502Z,60.00
2018-06-27T00:50:29.570Z,64.00
2018-06-27T00:51:27.436Z,68.00
2018-06-27T00:52:27.502Z,68.00
2018-06-27T00:53:27.375Z,72.00
2018-06-27T00:54:27.433Z,76.00
2018-06-27T00:55:27.364Z,76.00
2018-06-27T00:56:27.472Z,84.00
2018-06-27T00:57:27.301Z,88.00
2018-06-27T00:58:27.393Z,92.00
2018-06-27T01:00:27.343Z,96.00
2018-06-27T01:01:27.346Z,104.00
2018-06-27T01:02:27.267Z,104.00
2018-06-27T01:03:30.636Z,108.00
2018-06-27T01:04:29.183Z,112.00
2018-06-27T01:05:27.372Z,116.00
2018-06-27T01:06:27.254Z,120.00
2018-06-27T01:07:27.356Z,124.00
2018-06-27T01:08:29.735Z,128.00
2018-06-27T01:09:27.132Z,132.00
2018-06-27T01:10:29.233Z,136.00
2018-06-27T01:12:29.184Z,148.00
2018-06-27T01:13:27.312Z,152.00
2018-06-27T01:14:27.257Z,160.00
2018-06-27T01:15:27.108Z,168.00
2018-06-27T01:16:27.197Z,176.00
2018-06-27T01:17:27.259Z,180.00
2018-06-27T01:18:27.186Z,188.00
2018-06-27T01:19:27.233Z,196.00
2018-06-27T01:20:27.145Z,204.00
2018-06-27T01:24:59.996Z,232.00
2018-06-27T01:25:34.057Z,240.00
2018-06-27T01:27:59.133Z,252.00
2018-06-27T01:28:36.431Z,260.00
2018-06-27T01:31:32.696Z,284.00
2018-06-27T01:34:13.958Z,304.00
2018-06-27T01:35:06.804Z,316.00
2018-06-27T01:42:27.111Z,392.00
2018-06-27T01:43:24.009Z,408.00
2018-06-27T01:45:27.889Z,432.00
2018-06-27T01:46:17.157Z,448.00
2018-06-27T01:48:11.316Z,476.00
2018-06-27T01:49:10.654Z,488.00
2018-06-27T01:50:10.649Z,508.00
2018-06-27T01:51:21.191Z,520.00
2018-06-27T01:52:11.157Z,536.00
2018-06-27T01:53:31.638Z,552.00
2018-06-27T01:54:12.284Z,564.00
2018-06-27T01:55:10.621Z,584.00
2018-06-27T01:57:50.838Z,628.00
2018-06-27T02:09:36.256Z,872.00
2018-06-27T02:13:04.750Z,960.00
2018-06-27T02:13:46.742Z,980.00
2018-06-27T02:23:52.416Z,1236.00
2018-06-27T02:24:25.426Z,1260.00
2018-06-27T02:26:38.875Z,1320.00
2018-06-27T02:27:37.034Z,1348.00
2018-06-27T02:30:31.053Z,1436.00
2018-06-27T02:31:30.566Z,1472.00
2018-06-27T02:32:31.478Z,1512.00
2018-06-27T02:33:32.296Z,1548.00
2018-06-27T02:34:33.367Z,1580.00
2018-06-27T02:35:31.385Z,1616.00
2018-06-27T02:36:33.438Z,1648.00
2018-06-27T02:37:30.473Z,1688.00
2018-06-27T02:38:35.441Z,1720.00
2018-06-27T02:39:32.429Z,1760.00
2018-06-27T02:40:31.397Z,1788.00
2018-06-27T02:41:30.427Z,1820.00
2018-06-27T02:42:53.277Z,1848.00
2018-06-27T02:43:30.516Z,1888.00
2018-06-27T02:44:32.877Z,1920.00
2018-06-27T02:45:30.340Z,1956.00
2018-06-27T02:47:30.351Z,2016.00
2018-06-27T02:48:32.939Z,2048.00
2018-06-27T02:49:30.911Z,2076.00
2018-06-27T02:50:51.403Z,2104.00
2018-06-27T02:51:30.402Z,2124.00
2018-06-27T02:53:32.949Z,2160.00
2018-06-27T02:54:30.293Z,2180.00
2018-06-27T02:56:30.295Z,2200.00
2018-06-27T02:57:34.987Z,2200.00
2018-06-27T02:58:30.264Z,2200.00
2018-06-27T02:59:34.963Z,2196.00
2018-06-27T03:00:30.268Z,2180.00
2018-06-27T03:03:43.804Z,2160.00
2018-06-27T03:19:55.138Z,2724.00
2018-06-27T03:20:55.745Z,2760.00
2018-06-27T03:21:55.865Z,2788.00
2018-06-27T03:22:55.765Z,2820.00
2018-06-27T03:23:55.639Z,2856.00
2018-06-27T03:24:55.030Z,2884.00
2018-06-27T03:25:55.713Z,2916.00
2018-06-27T03:26:54.880Z,2952.00
2018-06-27T03:27:54.846Z,2988.00
2018-06-27T03:28:54.982Z,3016.00
2018-06-27T03:29:54.838Z,3052.00
2018-06-27T04:02:51.718Z,3556.00
2018-06-27T04:03:51.558Z,3596.00
2018-06-27T04:22:35.818Z,4276.00
2018-06-27T04:41:28.545Z,4360.00
2018-06-27T04:47:59.001Z,4272.00
2018-06-27T04:48:29.019Z,4308.00
2018-06-27T04:55:56.997Z,4452.00
2018-06-27T04:56:58.308Z,4448.00
2018-06-27T08:30:48.282Z,33920.00
2018-06-27T08:31:30.295Z,33312.00
2018-06-27T08:35:02.801Z,34496.00
2018-06-27T08:37:02.742Z,36640.00
2018-06-27T08:43:53.629Z,32160.00
2018-06-27T08:44:42.901Z,32544.00
2018-06-27T08:46:57.301Z,35072.00
2018-06-27T08:47:36.872Z,34144.00
2018-06-27T08:56:28.322Z,40704.00
2018-06-27T08:57:20.420Z,40352.00
2018-06-27T09:02:56.970Z,40160.00
2018-06-27T09:03:45.662Z,40224.00
2018-06-27T09:05:43.527Z,40320.00
2018-06-27T09:08:55.929Z,40608.00
2018-06-27T09:09:55.885Z,40640.00
2018-06-27T09:10:55.912Z,40640.00
2018-06-27T09:11:55.891Z,40736.00
2018-06-27T09:12:55.928Z,40864.00
2018-06-27T09:13:55.963Z,40896.00
2018-06-27T09:14:55.804Z,40960.00
2018-06-27T09:15:56.446Z,41088.00
2018-06-27T09:16:55.754Z,41280.00
2018-06-27T09:17:55.995Z,41216.00
2018-06-27T09:18:56.448Z,41344.00
2018-06-27T09:19:56.605Z,41536.00
2018-06-27T09:20:55.978Z,41696.00
2018-06-27T09:21:57.081Z,41824.00
2018-06-27T09:22:55.984Z,41952.00
2018-06-27T09:23:56.038Z,42112.00
2018-06-27T09:24:56.107Z,42176.00
2018-06-27T09:25:56.074Z,42272.00
2018-06-27T09:26:55.945Z,42464.00
2018-06-27T09:27:56.032Z,42528.00
2018-06-27T09:28:56.123Z,42624.00
2018-06-27T09:29:56.059Z,42688.00
2018-06-27T09:30:56.120Z,42656.00
2018-06-27T09:31:56.094Z,42912.00
2018-06-27T09:34:49.034Z,43104.00
2018-06-27T09:35:48.843Z,43200.00
2018-06-27T09:41:50.942Z,44032.00
2018-06-27T09:42:48.861Z,44256.00
2018-06-27T09:43:49.915Z,44640.00
2018-06-27T09:45:48.915Z,44992.00
2018-06-27T09:46:48.813Z,45568.00
2018-06-27T09:47:48.958Z,46080.00
2018-06-27T09:48:48.925Z,46080.00
2018-06-27T09:49:48.933Z,46272.00
2018-06-27T09:50:49.793Z,46560.00
2018-06-27T09:51:48.904Z,46496.00
2018-06-27T09:52:48.900Z,46624.00
2018-06-27T09:53:51.814Z,46752.00
2018-06-27T09:54:49.828Z,47264.00
2018-06-27T09:55:48.982Z,48320.00
2018-06-27T09:56:49.947Z,49376.00
2018-06-27T09:57:48.968Z,49536.00
2018-06-27T09:58:50.649Z,49504.00
2018-06-27T09:59:48.970Z,50304.00
2018-06-27T10:00:48.917Z,50688.00
2018-06-27T10:01:49.836Z,50720.00
2018-06-27T10:02:49.814Z,50304.00
2018-06-27T10:05:42.008Z,49696.00
2018-06-27T10:06:42.510Z,49792.00
2018-06-27T10:07:40.722Z,50432.00
2018-06-27T10:08:40.785Z,50976.00
2018-06-27T10:09:41.375Z,50688.00
2018-06-27T10:10:40.764Z,50368.00
2018-06-27T10:11:40.695Z,50240.00
2018-06-27T10:12:40.764Z,49952.00
2018-06-27T10:13:40.906Z,49824.00
2018-06-27T10:14:41.557Z,50208.00
2018-06-27T10:15:40.776Z,49984.00
2018-06-27T10:16:40.950Z,50784.00
2018-06-27T10:17:45.438Z,52256.00
2018-06-27T10:18:40.839Z,52896.00
2018-06-27T10:19:40.907Z,54048.00
2018-06-27T10:20:40.694Z,55136.00
2018-06-27T10:21:40.888Z,56544.00
2018-06-27T10:22:42.416Z,55360.00
2018-06-27T10:23:43.402Z,51648.00
2018-06-27T10:24:40.836Z,57824.00
2018-06-27T10:25:40.947Z,40768.00
2018-06-27T10:26:41.882Z,39680.00
2018-06-27T10:27:41.950Z,46720.00
2018-06-27T10:28:41.049Z,34944.00
2018-06-27T10:29:40.966Z,30080.00
2018-06-27T10:30:41.999Z,37984.00
2018-06-27T10:31:41.101Z,37792.00
2018-06-27T10:32:41.081Z,32000.00
2018-06-27T10:33:41.197Z,30880.00
2018-06-27T10:34:41.103Z,38656.00
2018-06-27T10:35:42.061Z,52384.00
2018-06-27T10:37:41.184Z,21088.00
2018-06-27T10:38:41.997Z,18304.00
2018-06-27T10:39:42.280Z,17408.00
2018-06-27T10:40:42.071Z,17376.00
2018-06-27T10:41:41.219Z,17184.00
2018-06-27T10:42:41.271Z,17056.00
2018-06-27T10:43:41.322Z,16960.00
2018-06-27T10:45:41.279Z,16800.00
2018-06-27T10:47:41.284Z,17120.00
2018-06-27T10:50:02.329Z,17088.00
2018-06-27T10:50:41.799Z,17088.00
2018-06-27T10:51:46.051Z,17152.00
2018-06-27T10:56:09.587Z,14364.00
2018-06-27T10:58:52.902Z,12892.00
2018-06-27T11:01:41.810Z,12832.00
2018-06-27T11:03:50.475Z,14108.00
2018-06-27T11:07:03.802Z,16384.00
2018-06-27T11:10:47.807Z,18016.00
2018-06-27T11:15:01.507Z,18400.00
2018-06-27T11:17:06.366Z,23872.00
2018-06-27T11:25:41.219Z,22912.00
2018-06-27T11:28:45.967Z,41824.00
2018-06-27T11:31:28.372Z,31104.00
2018-06-27T11:31:49.190Z,46784.00
2018-06-27T11:33:44.590Z,60768.00
2018-06-27T11:34:43.188Z,59680.00
2018-06-27T11:37:36.364Z,57600.00
2018-06-27T11:39:30.063Z,58528.00
2018-06-27T11:43:23.479Z,60384.00
2018-06-27T11:45:17.878Z,44352.00
2018-06-27T11:46:16.924Z,32864.00
2018-06-27T11:48:10.229Z,55072.00
2018-06-27T11:49:09.704Z,59008.00
2018-06-27T11:51:02.722Z,58016.00
2018-06-27T11:52:02.803Z,59360.00
2018-06-27T11:53:59.067Z,53600.00
2018-06-27T11:54:56.057Z,62944.00
2018-06-27T11:56:50.442Z,65504.00
2018-06-27T11:57:49.475Z,55360.00
2018-06-27T11:58:50.014Z,58944.00
2018-06-27T11:59:49.460Z,56608.00
2018-06-27T12:00:51.040Z,49056.00
2018-06-27T12:01:49.488Z,65856.00
2018-06-27T12:02:49.483Z,54016.00
2018-06-27T12:03:49.454Z,64800.00
2018-06-27T12:04:51.418Z,64480.00
2018-06-27T12:05:49.658Z,52736.00
2018-06-27T12:06:49.478Z,59296.00
2018-06-27T12:07:49.427Z,50624.00
2018-06-27T12:08:49.549Z,62048.00
2018-06-27T12:09:49.547Z,48064.00
2018-06-27T12:10:49.612Z,60704.00
2018-06-27T12:11:49.580Z,54368.00
2018-06-27T12:12:49.668Z,60256.00
2018-06-27T12:13:49.653Z,59232.00
2018-06-27T12:14:49.579Z,57632.00
2018-06-27T12:15:49.640Z,51040.00
2018-06-27T12:16:49.661Z,22944.00
2018-06-27T12:17:49.631Z,66144.00
2018-06-27T12:18:49.728Z,17568.00
2018-06-27T12:19:49.613Z,54848.00
2018-06-27T12:20:49.668Z,65856.00
2018-06-27T12:21:49.648Z,55232.00
2018-06-27T12:22:49.800Z,60480.00
2018-06-27T12:23:49.844Z,59808.00
2018-06-27T12:24:49.885Z,44128.00
2018-06-27T12:25:49.709Z,61568.00
2018-06-27T12:26:49.743Z,41600.00
2018-06-27T12:27:49.894Z,51072.00
2018-06-27T12:28:49.804Z,60256.00
2018-06-27T12:29:50.000Z,55744.00
2018-06-27T12:30:49.823Z,34272.00
2018-06-27T12:32:49.877Z,59200.00
2018-06-27T12:33:49.863Z,50304.00
2018-06-27T12:34:50.057Z,55392.00
2018-06-27T12:35:50.010Z,58752.00
2018-06-27T12:36:49.898Z,62624.00
2018-06-27T12:37:50.081Z,39744.00
2018-06-27T12:38:50.060Z,17952.00
2018-06-27T12:39:49.983Z,64128.00
2018-06-27T12:40:50.013Z,51712.00
2018-06-27T12:41:50.031Z,18656.00
2018-06-27T12:42:51.000Z,20544.00
2018-06-27T12:43:49.985Z,20768.00
2018-06-27T12:44:50.952Z,22336.00
2018-06-27T12:45:50.271Z,34336.00
2018-06-27T12:46:50.168Z,68288.00
2018-06-27T12:47:50.244Z,21728.00
2018-06-27T12:48:50.187Z,75456.00
2018-06-27T12:49:50.391Z,31776.00
2018-06-27T12:50:50.153Z,77664.00
2018-06-27T12:51:50.247Z,75328.00
2018-06-27T12:52:50.287Z,73728.00
2018-06-27T12:53:50.280Z,71936.00
2018-06-27T12:54:50.187Z,70976.00
2018-06-27T12:55:50.133Z,70432.00
2018-06-27T12:56:50.239Z,70048.00
2018-06-27T12:57:50.030Z,70912.00
2018-06-27T12:58:51.031Z,72896.00
2018-06-27T12:59:50.164Z,73632.00
2018-06-27T13:00:50.076Z,72608.00
2018-06-27T13:01:50.116Z,71264.00
2018-06-27T13:02:50.147Z,69344.00
2018-06-27T13:03:50.203Z,68096.00
2018-06-27T13:04:50.124Z,67648.00
2018-06-27T13:05:50.906Z,73696.00
2018-06-27T13:06:50.257Z,75136.00
2018-06-27T13:07:50.214Z,74336.00
2018-06-27T13:08:50.187Z,73152.00
2018-06-27T13:09:50.297Z,70624.00
2018-06-27T13:10:50.243Z,69792.00
2018-06-27T13:11:50.215Z,71296.00
2018-06-27T13:12:50.942Z,70656.00
2018-06-27T13:13:50.344Z,70048.00
2018-06-27T13:14:50.334Z,71040.00
2018-06-27T13:15:50.344Z,72416.00
2018-06-27T13:16:50.317Z,75616.00
2018-06-27T13:17:50.437Z,32832.00
2018-06-27T13:18:50.377Z,61184.00
2018-06-27T13:19:50.333Z,78240.00
2018-06-27T13:20:50.334Z,70592.00
2018-06-27T13:21:50.434Z,69472.00
2018-06-27T13:22:50.930Z,37728.00
2018-06-27T13:23:50.507Z,72064.00
2018-06-27T13:24:51.407Z,49376.00
2018-06-27T13:25:51.400Z,78336.00
2018-06-27T13:26:50.565Z,68320.00
2018-06-27T13:27:50.582Z,76608.00
2018-06-27T13:28:50.480Z,76768.00
2018-06-27T13:29:50.519Z,76480.00
2018-06-27T13:30:50.475Z,52992.00
2018-06-27T13:31:50.614Z,53824.00
2018-06-27T13:32:50.550Z,64256.00
2018-06-27T13:33:50.579Z,77152.00
2018-06-27T13:34:50.517Z,72288.00
2018-06-27T13:35:50.605Z,75808.00
2018-06-27T13:36:50.545Z,75904.00
2018-06-27T13:37:50.706Z,66240.00
2018-06-27T13:38:50.696Z,69216.00
2018-06-27T13:39:50.635Z,64544.00
2018-06-27T13:40:52.372Z,66944.00
2018-06-27T13:41:50.597Z,60960.00
2018-06-27T13:42:50.736Z,60448.00
2018-06-27T13:43:50.741Z,61664.00
2018-06-27T13:44:50.846Z,67488.00
2018-06-27T13:45:50.763Z,72736.00
2018-06-27T13:46:50.721Z,71200.00
2018-06-27T13:47:50.679Z,62016.00
2018-06-27T13:49:52.562Z,59008.00
2018-06-27T13:50:50.888Z,57920.00
2018-06-27T13:51:51.463Z,59552.00
2018-06-27T13:52:50.838Z,60032.00
2018-06-27T13:53:50.942Z,58816.00
2018-06-27T13:54:50.869Z,58016.00
2018-06-27T13:55:50.819Z,57024.00
2018-06-27T13:56:50.772Z,60128.00
2018-06-27T13:57:51.049Z,62624.00
2018-06-27T13:58:50.979Z,64480.00
2018-06-27T13:59:50.920Z,61792.00
2018-06-27T14:00:51.042Z,60448.00
2018-06-27T14:01:51.000Z,65248.00
2018-06-27T14:02:51.220Z,71104.00
2018-06-27T14:03:51.161Z,72640.00
2018-06-27T14:04:51.168Z,72416.00
2018-06-27T14:05:51.572Z,56064.00
2018-06-27T14:06:51.146Z,70464.00
2018-06-27T14:07:51.029Z,76800.00
2018-06-27T14:08:51.113Z,81504.00
2018-06-27T14:09:51.047Z,79872.00
2018-06-27T14:10:52.030Z,73504.00
2018-06-27T14:11:51.187Z,70848.00
2018-06-27T14:12:51.148Z,59744.00
2018-06-27T14:13:51.144Z,52064.00
2018-06-27T14:14:51.214Z,82144.00
2018-06-27T14:15:55.196Z,83328.00
2018-06-27T14:16:51.296Z,80800.00
2018-06-27T14:17:51.199Z,83808.00
2018-06-27T14:18:51.266Z,84256.00
2018-06-27T14:19:51.232Z,81024.00
2018-06-27T14:20:51.341Z,73408.00
2018-06-27T14:21:52.052Z,68960.00
2018-06-27T14:22:51.301Z,68544.00
2018-06-27T14:23:51.477Z,72288.00
2018-06-27T14:24:53.017Z,86304.00
2018-06-27T14:25:51.486Z,97280.00
2018-06-27T14:26:51.282Z,98400.00
2018-06-27T14:27:51.948Z,93760.00
2018-06-27T14:28:51.257Z,94944.00
2018-06-27T14:29:51.214Z,91136.00
2018-06-27T14:30:51.297Z,91264.00
2018-06-27T14:31:51.376Z,91296.00
2018-06-27T14:32:51.931Z,92320.00
2018-06-27T14:33:51.319Z,90400.00
2018-06-27T14:34:51.310Z,87872.00
2018-06-27T14:35:51.370Z,89376.00
2018-06-27T14:36:51.338Z,88672.00
2018-06-27T14:37:51.549Z,86592.00
2018-06-27T14:38:51.357Z,87808.00
2018-06-27T14:39:51.638Z,90272.00
2018-06-27T14:40:51.311Z,90464.00
2018-06-27T14:41:51.603Z,83360.00
2018-06-27T14:42:51.431Z,79936.00
2018-06-27T14:43:52.055Z,78752.00
2018-06-27T14:44:53.159Z,78464.00
2018-06-27T14:45:51.441Z,77472.00
2018-06-27T14:46:51.542Z,74976.00
2018-06-27T14:47:51.648Z,68128.00
2018-06-27T14:48:51.620Z,59136.00
2018-06-27T14:49:52.321Z,47616.00
2018-06-27T14:50:52.246Z,36832.00
2018-06-27T14:51:52.189Z,25472.00
2018-06-27T14:52:52.289Z,15928.00
2018-06-27T14:53:54.354Z,11900.00
2018-06-27T14:54:53.389Z,10532.00
2018-06-27T14:56:51.726Z,8476.00
2018-06-27T14:57:52.372Z,7648.00
2018-06-27T14:58:53.363Z,6920.00
2018-06-27T14:59:53.362Z,6336.00
2018-06-27T15:00:51.888Z,5908.00
2018-06-27T15:03:51.771Z,5556.00
2018-06-27T15:05:14.356Z,5520.00
2018-06-27T15:05:58.340Z,5484.00
2018-06-27T15:06:52.383Z,5432.00
2018-06-27T15:08:02.310Z,5392.00
2018-06-27T15:08:52.876Z,5356.00
2018-06-27T15:10:52.471Z,5304.00
2018-06-27T15:11:51.875Z,5284.00
2018-06-27T15:13:14.364Z,5248.00
2018-06-27T15:13:51.841Z,5224.00
2018-06-27T15:14:53.419Z,5196.00
2018-06-27T15:16:13.799Z,5192.00
2018-06-27T15:16:52.544Z,5180.00
2018-06-27T15:17:56.333Z,5176.00
2018-06-27T15:18:52.364Z,5124.00
2018-06-27T15:20:12.888Z,5036.00
2018-06-27T15:20:51.794Z,5052.00
2018-06-27T15:21:54.366Z,5252.00
2018-06-27T15:22:56.286Z,5308.00
2018-06-27T15:23:51.849Z,5304.00
2018-06-27T15:25:15.357Z,5208.00
2018-06-27T15:27:20.369Z,5048.00
2018-06-27T15:27:51.789Z,4640.00
2018-06-27T15:29:14.305Z,4648.00
2018-06-27T15:29:52.351Z,4552.00
2018-06-27T15:31:14.354Z,4760.00
2018-06-27T15:32:12.833Z,5000.00
2018-06-27T15:32:51.848Z,5084.00
2018-06-27T15:33:51.859Z,5172.00
2018-06-27T15:35:12.782Z,5184.00
2018-06-27T15:35:51.802Z,5268.00
2018-06-27T15:37:51.838Z,5004.00
2018-06-27T15:38:52.766Z,4908.00
2018-06-27T15:39:51.798Z,4812.00
2018-06-27T15:40:56.238Z,4732.00
2018-06-27T15:41:51.740Z,4656.00
2018-06-27T15:42:52.383Z,4608.00
2018-06-27T15:43:51.800Z,4572.00
2018-06-27T15:45:58.404Z,4512.00
2018-06-27T15:46:52.396Z,4484.00
2018-06-27T15:47:51.762Z,4464.00
2018-06-27T15:48:51.715Z,4436.00
2018-06-27T15:50:52.375Z,4092.00
2018-06-27T15:51:51.811Z,4004.00
2018-06-27T15:52:51.806Z,4092.00
2018-06-27T15:53:52.361Z,4384.00
2018-06-27T15:54:56.307Z,4412.00
2018-06-27T15:55:54.403Z,4508.00
2018-06-27T15:56:51.740Z,4484.00
2018-06-27T15:57:52.295Z,4660.00
2018-06-27T15:59:02.388Z,4384.00
2018-06-27T15:59:53.337Z,4324.00
2018-06-27T16:00:53.323Z,4528.00
2018-06-27T16:01:54.347Z,4528.00
2018-06-27T16:04:34.844Z,4348.00
2018-06-27T16:07:17.744Z,4524.00
2018-06-27T16:08:17.752Z,4500.00
2018-06-27T16:10:13.553Z,4380.00
2018-06-27T16:11:10.629Z,4300.00
2018-06-27T16:13:04.091Z,4292.00
2018-06-27T16:14:04.492Z,4260.00
2018-06-27T16:16:10.477Z,4224.00
2018-06-27T16:17:10.016Z,4204.00
2018-06-27T16:21:04.148Z,4028.00
2018-06-27T16:23:18.148Z,3924.00
2018-06-27T16:23:35.598Z,3672.00
2018-06-27T16:26:08.013Z,3776.00
2018-06-27T16:27:56.677Z,3740.00
2018-06-27T16:28:54.846Z,3640.00
2018-06-27T16:29:54.914Z,3624.00
2018-06-27T16:30:54.828Z,3596.00
2018-06-27T16:31:54.878Z,3616.00
2018-06-27T16:33:02.965Z,3508.00
2018-06-27T16:34:56.302Z,3372.00
2018-06-27T16:35:49.812Z,3328.00
2018-06-27T16:37:41.707Z,3292.00
2018-06-27T16:40:38.638Z,3336.00
2018-06-27T16:41:35.848Z,3396.00
2018-06-27T16:43:29.979Z,3348.00
2018-06-27T16:46:29.614Z,3292.00
2018-06-27T16:47:21.879Z,3444.00
2018-06-27T16:49:14.864Z,3676.00
2018-06-27T16:50:14.877Z,3752.00
2018-06-27T16:51:14.749Z,3768.00
2018-06-27T16:52:14.765Z,3780.00
2018-06-27T16:53:14.599Z,3752.00
2018-06-27T16:55:14.778Z,3856.00
2018-06-27T16:56:14.719Z,3952.00
2018-06-27T16:57:14.737Z,3944.00
2018-06-27T16:58:14.736Z,3840.00
2018-06-27T16:59:14.757Z,3712.00
2018-06-27T17:00:14.715Z,3624.00
2018-06-27T17:01:14.713Z,3440.00
2018-06-27T17:02:14.723Z,3188.00
2018-06-27T17:03:14.696Z,2980.00
2018-06-27T17:04:14.835Z,2836.00
2018-06-27T17:05:14.636Z,2756.00
2018-06-27T17:06:16.379Z,2728.00
2018-06-27T17:07:14.691Z,2724.00
2018-06-27T17:08:14.638Z,2708.00
2018-06-27T17:09:14.812Z,2700.00
2018-06-27T17:10:14.659Z,2700.00
2018-06-27T17:11:14.634Z,2688.00
2018-06-27T17:12:14.691Z,2668.00
2018-06-27T17:13:14.758Z,2640.00
2018-06-27T17:14:14.651Z,2588.00
2018-06-27T17:15:14.491Z,2556.00
2018-06-27T17:16:15.254Z,2552.00
2018-06-27T17:17:14.644Z,2544.00
2018-06-27T17:18:14.622Z,2556.00
2018-06-27T17:19:14.649Z,2596.00
2018-06-27T17:20:14.511Z,2648.00
2018-06-27T17:21:14.532Z,2712.00
2018-06-27T17:22:17.485Z,2728.00
2018-06-27T17:23:14.637Z,2696.00
2018-06-27T17:24:14.669Z,2652.00
2018-06-27T17:25:14.625Z,2592.00
2018-06-27T17:26:14.572Z,2556.00
2018-06-27T17:28:14.687Z,2504.00
2018-06-27T17:29:14.643Z,2484.00
2018-06-27T17:30:14.585Z,2464.00
2018-06-27T17:31:16.450Z,2440.00
2018-06-27T17:32:14.530Z,2420.00
2018-06-27T17:33:14.442Z,2400.00
2018-06-27T17:34:14.619Z,2380.00
2018-06-27T17:35:14.606Z,2360.00
2018-06-27T17:36:14.675Z,2348.00
2018-06-27T17:37:14.605Z,2332.00
2018-06-27T17:38:16.414Z,2316.00
2018-06-27T17:39:14.468Z,2300.00
2018-06-27T17:40:14.486Z,2284.00
2018-06-27T17:41:16.346Z,2268.00
2018-06-27T17:42:17.421Z,2248.00
2018-06-27T17:43:14.589Z,2232.00
2018-06-27T17:44:14.379Z,2216.00
2018-06-27T17:45:14.544Z,2196.00
2018-06-27T17:46:14.438Z,2180.00
2018-06-27T17:47:14.600Z,2168.00
2018-06-27T17:48:14.492Z,2152.00
2018-06-27T17:49:14.534Z,2136.00
2018-06-27T17:51:14.538Z,2100.00
2018-06-27T17:52:14.356Z,2080.00
2018-06-27T17:53:16.296Z,2060.00
2018-06-27T17:54:14.481Z,2040.00
2018-06-27T17:55:14.426Z,2024.00
2018-06-27T17:56:14.485Z,2004.00
2018-06-27T17:57:14.473Z,1988.00
2018-06-27T17:58:17.436Z,1968.00
2018-06-27T17:59:14.354Z,1948.00
2018-06-27T18:00:14.480Z,1928.00
2018-06-27T18:01:14.416Z,1912.00
2018-06-27T18:02:14.465Z,1892.00
2018-06-27T18:03:14.380Z,1872.00
2018-06-27T18:04:16.399Z,1856.00
2018-06-27T18:05:14.356Z,1836.00
2018-06-27T18:06:14.370Z,1820.00
2018-06-27T18:07:14.248Z,1800.00
2018-06-27T18:08:14.302Z,1784.00
2018-06-27T18:09:17.163Z,1768.00
2018-06-27T18:10:14.453Z,1752.00
2018-06-27T18:11:14.306Z,1736.00
2018-06-27T18:12:14.404Z,1716.00
2018-06-27T18:13:14.194Z,1700.00
2018-06-27T18:14:14.360Z,1684.00
2018-06-27T18:15:14.347Z,1668.00
2018-06-27T18:16:14.194Z,1648.00
2018-06-27T18:17:14.452Z,1632.00
2018-06-27T18:18:14.282Z,1616.00
2018-06-27T18:20:14.158Z,1580.00
2018-06-27T18:21:14.123Z,1568.00
2018-06-27T18:22:14.279Z,1548.00
2018-06-27T18:23:14.187Z,1536.00
2018-06-27T18:24:14.234Z,1512.00
2018-06-27T18:25:14.423Z,1504.00
2018-06-27T18:26:14.177Z,1480.00
2018-06-27T18:27:16.758Z,1464.00
2018-06-27T18:28:14.367Z,1444.00
2018-06-27T18:29:14.191Z,1428.00
2018-06-27T18:30:14.308Z,1408.00
2018-06-27T18:31:14.265Z,1392.00
2018-06-27T18:32:14.167Z,1372.00
2018-06-27T18:33:14.211Z,1352.00
2018-06-27T18:34:15.173Z,1332.00
2018-06-27T18:35:17.761Z,1316.00
2018-06-27T18:36:14.075Z,1300.00
2018-06-27T18:37:14.159Z,1284.00
2018-06-27T18:38:14.240Z,1268.00
2018-06-27T18:39:14.120Z,1248.00
2018-06-27T18:40:14.215Z,1228.00
2018-06-27T18:41:15.951Z,1212.00
2018-06-27T18:42:15.962Z,1192.00
2018-06-27T18:43:14.215Z,1172.00
2018-06-27T18:44:15.912Z,1152.00
2018-06-27T18:45:14.017Z,1140.00
2018-06-27T18:46:14.139Z,1120.00
2018-06-27T18:47:16.916Z,1096.00
2018-06-27T18:48:14.201Z,1080.00
2018-06-27T18:49:14.143Z,1060.00
2018-06-27T18:50:14.126Z,1040.00
2018-06-27T18:51:13.980Z,1024.00
2018-06-27T18:52:14.101Z,1000.00
2018-06-27T18:53:14.089Z,980.00
2018-06-27T18:54:14.140Z,956.00
2018-06-27T18:55:14.183Z,932.00
2018-06-27T18:56:14.157Z,908.00
2018-06-27T18:57:14.208Z,880.00
2018-06-27T18:58:14.106Z,856.00
2018-06-27T18:59:14.071Z,832.00
2018-06-27T19:00:14.079Z,808.00
2018-06-27T19:01:14.028Z,784.00
2018-06-27T19:02:14.031Z,764.00
2018-06-27T19:03:14.048Z,740.00
2018-06-27T19:04:13.962Z,724.00
2018-06-27T19:05:13.994Z,704.00
2018-06-27T19:06:14.029Z,688.00
2018-06-27T19:07:13.824Z,668.00
2018-06-27T19:08:13.997Z,656.00
2018-06-27T19:09:15.739Z,636.00
2018-06-27T19:10:13.887Z,624.00
2018-06-27T19:11:13.989Z,608.00
2018-06-27T19:12:13.920Z,592.00
2018-06-27T19:13:14.013Z,580.00
2018-06-27T19:14:15.809Z,564.00
2018-06-27T19:15:14.011Z,552.00
2018-06-27T19:16:13.991Z,536.00
2018-06-27T19:17:13.893Z,524.00
2018-06-27T19:18:13.979Z,512.00
2018-06-27T19:19:13.858Z,500.00
2018-06-27T19:20:13.816Z,484.00
2018-06-27T19:21:13.863Z,468.00
2018-06-27T19:22:13.905Z,456.00
2018-06-27T19:23:13.794Z,444.00
2018-06-27T19:24:13.799Z,428.00
2018-06-27T19:25:13.938Z,416.00
2018-06-27T19:26:13.822Z,404.00
2018-06-27T19:27:13.970Z,388.00
2018-06-27T19:28:13.879Z,376.00
2018-06-27T19:29:13.833Z,364.00
2018-06-27T19:30:15.686Z,356.00
2018-06-27T19:31:13.770Z,344.00
2018-06-27T19:32:13.773Z,332.00
2018-06-27T19:33:14.010Z,320.00
2018-06-27T19:34:13.696Z,308.00
2018-06-27T19:35:13.800Z,300.00
2018-06-27T19:36:13.741Z,288.00
2018-06-27T19:37:13.766Z,280.00
2018-06-27T19:38:14.727Z,264.00
2018-06-27T19:39:13.814Z,256.00
2018-06-27T19:40:13.783Z,244.00
2018-06-27T19:41:13.928Z,240.00
2018-06-27T19:42:13.746Z,232.00
2018-06-27T19:43:13.647Z,220.00
2018-06-27T19:44:13.760Z,212.00
2018-06-27T19:45:13.659Z,200.00
2018-06-27T19:46:13.654Z,192.00
2018-06-27T19:47:13.611Z,184.00
2018-06-27T19:48:13.752Z,176.00
2018-06-27T19:49:13.609Z,168.00
2018-06-27T19:50:16.452Z,160.00
2018-06-27T19:51:15.347Z,152.00
2018-06-27T19:52:13.747Z,144.00
2018-06-27T19:53:13.716Z,140.00
2018-06-27T19:54:15.223Z,132.00
2018-06-27T19:55:13.700Z,124.00
2018-06-27T19:56:13.606Z,120.00
2018-06-27T19:57:15.534Z,116.00
2018-06-27T19:58:13.798Z,108.00
2018-06-27T19:59:13.537Z,100.00
2018-06-27T20:00:13.523Z,100.00
2018-06-27T20:01:13.646Z,92.00
2018-06-27T20:02:13.667Z,88.00
2018-06-27T20:03:13.492Z,84.00
2018-06-27T20:04:13.602Z,80.00
2018-06-27T20:05:13.559Z,72.00
2018-06-27T20:06:13.528Z,72.00
2018-06-27T20:07:13.827Z,64.00